createdAt,value
2019-02-19T00:00:10.798Z,1011.04
2019-02-19T00:01:10.802Z,1011.01
2019-02-19T00:02:10.997Z,1011.03
2019-02-19T00:03:10.776Z,1011.03
2019-02-19T00:04:10.973Z,1011.05
2019-02-19T00:06:10.964Z,1010.99
2019-02-19T00:07:10.762Z,1010.98
2019-02-19T00:08:10.752Z,1011.02
2019-02-19T00:09:10.743Z,1011.02
2019-02-19T00:10:10.751Z,1011.00
2019-02-19T00:11:11.059Z,1010.99
2019-02-19T00:12:10.754Z,1011.00
2019-02-19T00:13:10.930Z,1011.02
2019-02-19T00:14:10.741Z,1010.99
2019-02-19T00:16:10.932Z,1011.02
2019-02-19T00:17:10.717Z,1010.99
2019-02-19T00:18:10.718Z,1011.05
2019-02-19T00:19:10.721Z,1010.99
2019-02-19T00:20:10.704Z,1011.00
2019-02-19T00:21:10.708Z,1011.04
2019-02-19T00:22:10.678Z,1011.02
2019-02-19T00:23:10.679Z,1011.07
2019-02-19T00:24:10.677Z,1011.05
2019-02-19T00:25:10.661Z,1011.04
2019-02-19T00:26:10.853Z,1011.00
2019-02-19T00:27:10.652Z,1011.02
2019-02-19T00:28:10.659Z,1011.03
2019-02-19T00:29:10.639Z,1010.99
2019-02-19T00:30:10.632Z,1011.02
2019-02-19T00:31:20.086Z,1011.00
2019-02-19T00:32:10.653Z,1011.03
2019-02-19T00:33:10.638Z,1011.00
2019-02-19T00:34:10.816Z,1011.01
2019-02-19T00:35:10.636Z,1011.02
2019-02-19T00:36:10.614Z,1011.03
2019-02-19T00:37:10.815Z,1010.97
2019-02-19T00:38:10.588Z,1010.98
2019-02-19T00:39:10.608Z,1010.97
2019-02-19T00:40:10.586Z,1011.00
2019-02-19T00:41:10.787Z,1011.01
2019-02-19T00:42:10.589Z,1010.99
2019-02-19T00:43:10.581Z,1010.99
2019-02-19T00:44:10.561Z,1011.01
2019-02-19T00:45:16.508Z,1011.01
2019-02-19T00:46:10.549Z,1011.00
2019-02-19T00:47:10.551Z,1011.00
2019-02-19T00:48:10.536Z,1011.00
2019-02-19T00:49:10.737Z,1010.98
2019-02-19T00:50:10.525Z,1011.02
2019-02-19T00:51:10.529Z,1011.00
2019-02-19T00:52:10.512Z,1011.07
2019-02-19T00:53:10.517Z,1011.03
2019-02-19T00:54:10.717Z,1011.00
2019-02-19T00:55:10.520Z,1011.01
2019-02-19T00:56:10.500Z,1011.03
2019-02-19T00:57:10.493Z,1011.06
2019-02-19T00:58:10.693Z,1011.08
2019-02-19T00:59:10.479Z,1011.10
2019-02-19T01:00:10.480Z,1011.10
2019-02-19T01:01:10.476Z,1011.10
2019-02-19T01:02:10.669Z,1011.09
2019-02-19T01:03:10.663Z,1011.10
2019-02-19T01:04:10.464Z,1011.12
2019-02-19T01:05:10.462Z,1011.15
2019-02-19T01:06:10.467Z,1011.13
2019-02-19T01:07:10.440Z,1011.14
2019-02-19T01:08:10.438Z,1011.15
2019-02-19T01:09:10.430Z,1011.16
2019-02-19T01:10:10.419Z,1011.18
2019-02-19T01:11:10.427Z,1011.23
2019-02-19T01:12:10.416Z,1011.19
2019-02-19T01:13:10.647Z,1011.19
2019-02-19T01:14:10.402Z,1011.21
2019-02-19T01:15:10.425Z,1011.22
2019-02-19T01:16:10.776Z,1011.26
2019-02-19T01:17:10.402Z,1011.24
2019-02-19T01:18:10.387Z,1011.27
2019-02-19T01:19:10.378Z,1011.22
2019-02-19T01:20:10.589Z,1011.23
2019-02-19T01:21:10.387Z,1011.24
2019-02-19T01:22:10.379Z,1011.22
2019-02-19T01:23:10.351Z,1011.24
2019-02-19T01:24:10.345Z,1011.26
2019-02-19T01:25:10.361Z,1011.31
2019-02-19T01:26:10.345Z,1011.29
2019-02-19T01:27:10.340Z,1011.32
2019-02-19T01:28:10.576Z,1011.30
2019-02-19T01:29:10.524Z,1011.29
2019-02-19T01:30:10.328Z,1011.30
2019-02-19T01:32:10.305Z,1011.29
2019-02-19T01:33:10.304Z,1011.32
2019-02-19T01:34:10.317Z,1011.32
2019-02-19T01:35:10.299Z,1011.32
2019-02-19T01:36:10.290Z,1011.35
2019-02-19T01:37:10.289Z,1011.27
2019-02-19T01:38:10.290Z,1011.28
2019-02-19T01:39:10.473Z,1011.27
2019-02-19T01:40:10.288Z,1011.30
2019-02-19T01:41:10.470Z,1011.27
2019-02-19T01:42:10.454Z,1011.32
2019-02-19T01:43:10.256Z,1011.30
2019-02-19T01:44:10.472Z,1011.34
2019-02-19T01:45:10.236Z,1011.34
2019-02-19T01:46:10.439Z,1011.38
2019-02-19T01:47:10.436Z,1011.38
2019-02-19T01:48:10.225Z,1011.35
2019-02-19T01:49:10.225Z,1011.37
2019-02-19T01:50:10.226Z,1011.41
2019-02-19T01:51:10.216Z,1011.41
2019-02-19T01:52:10.200Z,1011.38
2019-02-19T01:53:10.411Z,1011.41
2019-02-19T01:54:10.204Z,1011.42
2019-02-19T01:55:10.390Z,1011.39
2019-02-19T01:56:10.196Z,1011.42
2019-02-19T01:57:10.181Z,1011.37
2019-02-19T01:58:10.180Z,1011.40
2019-02-19T01:59:10.165Z,1011.40
2019-02-19T02:00:10.180Z,1011.45
2019-02-19T02:01:10.162Z,1011.43
2019-02-19T02:02:10.150Z,1011.44
2019-02-19T02:03:10.145Z,1011.43
2019-02-19T02:04:10.136Z,1011.41
2019-02-19T02:05:10.353Z,1011.39
2019-02-19T02:06:10.135Z,1011.40
2019-02-19T02:07:10.135Z,1011.37
2019-02-19T02:08:10.134Z,1011.39
2019-02-19T02:09:10.114Z,1011.38
2019-02-19T02:10:10.113Z,1011.38
2019-02-19T02:11:10.104Z,1011.39
2019-02-19T02:12:10.101Z,1011.40
2019-02-19T02:13:10.307Z,1011.36
2019-02-19T02:14:10.314Z,1011.32
2019-02-19T02:15:10.092Z,1011.27
2019-02-19T02:16:10.105Z,1011.24
2019-02-19T02:17:10.070Z,1011.22
2019-02-19T02:18:10.084Z,1011.24
2019-02-19T02:19:10.265Z,1011.23
2019-02-19T02:20:10.059Z,1011.25
2019-02-19T02:21:10.067Z,1011.26
2019-02-19T02:22:10.254Z,1011.27
2019-02-19T02:23:10.053Z,1011.29
2019-02-19T02:24:10.065Z,1011.27
2019-02-19T02:25:10.050Z,1011.25
2019-02-19T02:26:10.228Z,1011.26
2019-02-19T02:27:10.040Z,1011.29
2019-02-19T02:28:10.045Z,1011.31
2019-02-19T02:29:10.012Z,1011.30
2019-02-19T02:30:10.228Z,1011.30
2019-02-19T02:31:10.005Z,1011.35
2019-02-19T02:32:09.994Z,1011.34
2019-02-19T02:33:10.198Z,1011.42
2019-02-19T02:34:10.201Z,1011.41
2019-02-19T02:35:11.328Z,1011.40
2019-02-19T02:36:09.990Z,1011.40
2019-02-19T02:37:09.973Z,1011.41
2019-02-19T02:38:09.992Z,1011.40
2019-02-19T02:39:09.971Z,1011.39
2019-02-19T02:41:09.957Z,1011.42
2019-02-19T02:42:09.952Z,1011.44
2019-02-19T02:43:09.939Z,1011.45
2019-02-19T02:44:10.153Z,1011.46
2019-02-19T02:45:10.155Z,1011.45
2019-02-19T02:46:09.931Z,1011.51
2019-02-19T02:47:09.938Z,1011.53
2019-02-19T02:48:09.919Z,1011.56
2019-02-19T02:49:10.166Z,1011.59
2019-02-19T02:50:09.932Z,1011.52
2019-02-19T02:51:10.118Z,1011.57
2019-02-19T02:52:09.938Z,1011.56
2019-02-19T02:53:09.902Z,1011.56
2019-02-19T02:54:09.903Z,1011.53
2019-02-19T02:55:09.894Z,1011.54
2019-02-19T02:56:09.921Z,1011.55
2019-02-19T02:57:10.077Z,1011.53
2019-02-19T02:58:10.080Z,1011.49
2019-02-19T02:59:09.885Z,1011.50
2019-02-19T03:00:09.860Z,1011.47
2019-02-19T03:01:09.869Z,1011.42
2019-02-19T03:03:09.848Z,1011.46
2019-02-19T03:04:09.861Z,1011.43
2019-02-19T03:05:10.364Z,1011.45
2019-02-19T03:06:09.856Z,1011.43
2019-02-19T03:07:09.868Z,1011.50
2019-02-19T03:08:09.839Z,1011.49
2019-02-19T03:09:10.050Z,1011.47
2019-02-19T03:10:09.835Z,1011.44
2019-02-19T03:11:10.022Z,1011.52
2019-02-19T03:12:09.823Z,1011.51
2019-02-19T03:13:09.809Z,1011.48
2019-02-19T03:14:09.803Z,1011.55
2019-02-19T03:15:09.808Z,1011.56
2019-02-19T03:16:09.789Z,1011.56
2019-02-19T03:17:09.790Z,1011.57
2019-02-19T03:18:09.780Z,1011.57
2019-02-19T03:19:09.822Z,1011.56
2019-02-19T03:20:09.776Z,1011.57
2019-02-19T03:21:09.975Z,1011.59
2019-02-19T03:22:09.968Z,1011.58
2019-02-19T03:23:09.761Z,1011.57
2019-02-19T03:24:09.759Z,1011.57
2019-02-19T03:25:09.768Z,1011.59
2019-02-19T03:26:09.753Z,1011.59
2019-02-19T03:27:09.743Z,1011.62
2019-02-19T03:28:09.742Z,1011.59
2019-02-19T03:29:09.761Z,1011.58
2019-02-19T03:30:09.770Z,1011.63
2019-02-19T03:31:09.957Z,1011.62
2019-02-19T03:32:09.939Z,1011.63
2019-02-19T03:33:09.720Z,1011.65
2019-02-19T03:34:09.787Z,1011.65
2019-02-19T03:35:09.731Z,1011.70
2019-02-19T03:36:09.720Z,1011.71
2019-02-19T03:37:09.768Z,1011.68
2019-02-19T03:38:09.730Z,1011.71
2019-02-19T03:39:09.730Z,1011.71
2019-02-19T03:40:09.721Z,1011.73
2019-02-19T03:41:09.696Z,1011.68
2019-02-19T03:42:09.685Z,1011.66
2019-02-19T03:43:09.882Z,1011.69
2019-02-19T03:44:09.900Z,1011.68
2019-02-19T03:45:09.926Z,1011.70
2019-02-19T03:46:12.468Z,1011.71
2019-02-19T03:47:09.896Z,1011.75
2019-02-19T03:48:09.665Z,1011.77
2019-02-19T03:49:09.908Z,1011.77
2019-02-19T03:50:09.667Z,1011.77
2019-02-19T03:51:09.857Z,1011.77
2019-02-19T03:52:09.650Z,1011.78
2019-02-19T03:53:09.674Z,1011.75
2019-02-19T03:54:09.649Z,1011.78
2019-02-19T03:55:09.661Z,1011.80
2019-02-19T03:56:09.633Z,1011.80
2019-02-19T03:57:09.855Z,1011.77
2019-02-19T03:58:09.825Z,1011.79
2019-02-19T03:59:09.623Z,1011.77
2019-02-19T04:00:09.614Z,1011.80
2019-02-19T04:01:09.637Z,1011.79
2019-02-19T04:02:09.615Z,1011.82
2019-02-19T04:03:09.810Z,1011.86
2019-02-19T04:04:09.810Z,1011.79
2019-02-19T04:05:09.594Z,1011.83
2019-02-19T04:06:09.657Z,1011.85
2019-02-19T04:07:09.587Z,1011.84
2019-02-19T04:08:09.584Z,1011.84
2019-02-19T04:09:09.575Z,1011.86
2019-02-19T04:10:09.588Z,1011.83
2019-02-19T04:11:09.573Z,1011.83
2019-02-19T04:12:09.584Z,1011.89
2019-02-19T04:13:09.568Z,1011.88
2019-02-19T04:14:09.564Z,1011.93
2019-02-19T04:15:09.573Z,1011.92
2019-02-19T04:16:09.566Z,1011.95
2019-02-19T04:17:09.556Z,1012.01
2019-02-19T04:18:09.947Z,1012.00
2019-02-19T04:19:09.742Z,1012.04
2019-02-19T04:20:09.539Z,1012.00
2019-02-19T04:21:09.550Z,1012.04
2019-02-19T04:22:09.549Z,1012.05
2019-02-19T04:23:09.750Z,1012.02
2019-02-19T04:24:09.535Z,1012.05
2019-02-19T04:25:09.736Z,1012.05
2019-02-19T04:26:09.510Z,1012.05
2019-02-19T04:28:09.710Z,1012.10
2019-02-19T04:29:09.517Z,1012.06
2019-02-19T04:30:09.531Z,1012.04
2019-02-19T04:31:09.700Z,1012.04
2019-02-19T04:32:09.688Z,1012.04
2019-02-19T04:33:09.488Z,1012.05
2019-02-19T04:34:09.489Z,1012.02
2019-02-19T04:35:09.508Z,1012.05
2019-02-19T04:36:09.487Z,1012.05
2019-02-19T04:37:09.489Z,1012.05
2019-02-19T04:38:09.503Z,1012.06
2019-02-19T04:39:09.494Z,1012.09
2019-02-19T04:40:09.475Z,1012.06
2019-02-19T04:41:09.658Z,1012.08
2019-02-19T04:42:09.449Z,1012.08
2019-02-19T04:43:09.462Z,1012.11
2019-02-19T04:44:09.667Z,1012.07
2019-02-19T04:45:09.882Z,1012.04
2019-02-19T04:46:09.665Z,1012.10
2019-02-19T04:47:09.459Z,1012.01
2019-02-19T04:48:09.460Z,1012.03
2019-02-19T04:49:09.462Z,1012.02
2019-02-19T04:50:09.444Z,1012.00
2019-02-19T04:51:09.416Z,1012.03
2019-02-19T04:52:09.632Z,1012.01
2019-02-19T04:53:09.419Z,1012.03
2019-02-19T04:54:09.422Z,1012.06
2019-02-19T04:55:09.405Z,1012.11
2019-02-19T04:56:09.597Z,1012.14
2019-02-19T04:57:09.398Z,1012.15
2019-02-19T04:58:09.390Z,1012.19
2019-02-19T04:59:09.808Z,1012.15
2019-02-19T05:00:09.385Z,1012.16
2019-02-19T05:01:09.382Z,1012.15
2019-02-19T05:02:09.383Z,1012.17
2019-02-19T05:03:09.374Z,1012.14
2019-02-19T05:04:09.381Z,1012.13
2019-02-19T05:05:09.577Z,1012.13
2019-02-19T05:06:09.368Z,1012.09
2019-02-19T05:07:09.358Z,1012.11
2019-02-19T05:08:09.359Z,1012.07
2019-02-19T05:09:09.357Z,1012.16
2019-02-19T05:10:09.374Z,1012.17
2019-02-19T05:11:09.350Z,1012.19
2019-02-19T05:12:09.344Z,1012.20
2019-02-19T05:13:09.350Z,1012.20
2019-02-19T05:14:09.369Z,1012.18
2019-02-19T05:16:09.335Z,1012.22
2019-02-19T05:17:09.341Z,1012.21
2019-02-19T05:18:09.380Z,1012.24
2019-02-19T05:19:09.543Z,1012.22
2019-02-19T05:20:09.316Z,1012.20
2019-02-19T05:21:09.319Z,1012.24
2019-02-19T05:22:09.515Z,1012.22
2019-02-19T05:23:09.314Z,1012.21
2019-02-19T05:24:09.497Z,1012.25
2019-02-19T05:25:09.293Z,1012.25
2019-02-19T05:26:09.290Z,1012.26
2019-02-19T05:27:09.297Z,1012.25
2019-02-19T05:28:09.297Z,1012.25
2019-02-19T05:29:09.283Z,1012.27
2019-02-19T05:30:09.276Z,1012.23
2019-02-19T05:32:09.271Z,1012.25
2019-02-19T05:33:09.288Z,1012.25
2019-02-19T05:34:09.256Z,1012.27
2019-02-19T05:35:09.263Z,1012.27
2019-02-19T05:36:09.250Z,1012.28
2019-02-19T05:37:09.251Z,1012.33
2019-02-19T05:38:09.243Z,1012.27
2019-02-19T05:39:09.244Z,1012.31
2019-02-19T05:40:09.267Z,1012.30
2019-02-19T05:41:09.234Z,1012.32
2019-02-19T05:42:09.243Z,1012.35
2019-02-19T05:43:09.440Z,1012.35
2019-02-19T05:44:09.437Z,1012.35
2019-02-19T05:45:09.239Z,1012.32
2019-02-19T05:46:09.244Z,1012.34
2019-02-19T05:47:09.431Z,1012.29
2019-02-19T05:48:09.236Z,1012.24
2019-02-19T05:49:09.406Z,1012.23
2019-02-19T05:50:09.201Z,1012.25
2019-02-19T05:51:09.396Z,1012.29
2019-02-19T05:52:09.196Z,1012.33
2019-02-19T05:53:09.201Z,1012.37
2019-02-19T05:54:09.186Z,1012.37
2019-02-19T05:55:09.189Z,1012.36
2019-02-19T05:56:09.182Z,1012.34
2019-02-19T05:57:09.187Z,1012.36
2019-02-19T05:58:09.182Z,1012.36
2019-02-19T05:59:09.165Z,1012.41
2019-02-19T06:00:09.172Z,1012.35
2019-02-19T06:01:09.172Z,1012.41
2019-02-19T06:02:09.175Z,1012.39
2019-02-19T06:03:09.374Z,1012.39
2019-02-19T06:04:09.155Z,1012.43
2019-02-19T06:05:09.167Z,1012.43
2019-02-19T06:06:09.178Z,1012.50
2019-02-19T06:07:09.159Z,1012.49
2019-02-19T06:08:09.162Z,1012.53
2019-02-19T06:09:09.477Z,1012.47
2019-02-19T06:10:09.144Z,1012.40
2019-02-19T06:11:09.153Z,1012.37
2019-02-19T06:12:09.119Z,1012.42
2019-02-19T06:13:09.111Z,1012.42
2019-02-19T06:14:09.109Z,1012.36
2019-02-19T06:15:09.113Z,1012.41
2019-02-19T06:16:09.133Z,1012.43
2019-02-19T06:17:09.313Z,1012.49
2019-02-19T06:18:09.094Z,1012.55
2019-02-19T06:19:09.314Z,1012.55
2019-02-19T06:20:09.087Z,1012.59
2019-02-19T06:21:09.091Z,1012.60
2019-02-19T06:22:09.078Z,1012.61
2019-02-19T06:23:09.294Z,1012.62
2019-02-19T06:24:09.297Z,1012.61
2019-02-19T06:25:09.126Z,1012.58
2019-02-19T06:26:09.066Z,1012.62
2019-02-19T06:27:09.061Z,1012.64
2019-02-19T06:28:09.068Z,1012.66
2019-02-19T06:29:09.072Z,1012.65
2019-02-19T06:30:09.047Z,1012.66
2019-02-19T06:31:09.068Z,1012.71
2019-02-19T06:32:09.043Z,1012.71
2019-02-19T06:33:09.044Z,1012.73
2019-02-19T06:34:09.041Z,1012.73
2019-02-19T06:35:09.236Z,1012.76
2019-02-19T06:36:09.239Z,1012.81
2019-02-19T06:37:09.033Z,1012.82
2019-02-19T06:38:09.030Z,1012.85
2019-02-19T06:39:09.020Z,1012.84
2019-02-19T06:40:09.024Z,1012.84
2019-02-19T06:41:09.226Z,1012.87
2019-02-19T06:42:09.020Z,1012.89
2019-02-19T06:43:09.219Z,1012.91
2019-02-19T06:44:08.999Z,1012.90
2019-02-19T06:45:09.014Z,1012.91
2019-02-19T06:46:09.226Z,1012.96
2019-02-19T06:47:08.993Z,1013.00
2019-02-19T06:48:09.196Z,1012.99
2019-02-19T06:49:08.977Z,1013.05
2019-02-19T06:50:09.182Z,1013.04
2019-02-19T06:51:08.979Z,1012.98
2019-02-19T06:52:08.984Z,1013.00
2019-02-19T06:53:08.982Z,1012.99
2019-02-19T06:54:08.968Z,1013.01
2019-02-19T06:55:08.967Z,1013.04
2019-02-19T06:56:09.477Z,1013.02
2019-02-19T06:57:09.175Z,1013.08
2019-02-19T06:58:08.972Z,1013.09
2019-02-19T06:59:08.952Z,1013.07
2019-02-19T07:00:08.965Z,1013.08
2019-02-19T07:01:09.149Z,1013.14
2019-02-19T07:02:08.943Z,1013.12
2019-02-19T07:03:09.151Z,1013.17
2019-02-19T07:04:08.943Z,1013.24
2019-02-19T07:05:08.925Z,1013.18
2019-02-19T07:06:09.137Z,1013.20
2019-02-19T07:07:08.914Z,1013.26
2019-02-19T07:08:08.916Z,1013.28
2019-02-19T07:10:09.098Z,1013.37
2019-02-19T07:11:08.913Z,1013.37
2019-02-19T07:12:09.099Z,1013.39
2019-02-19T07:13:08.907Z,1013.41
2019-02-19T07:14:08.892Z,1013.40
2019-02-19T07:15:08.885Z,1013.42
2019-02-19T07:16:08.898Z,1013.40
2019-02-19T07:17:15.458Z,1013.41
2019-02-19T07:18:08.889Z,1013.43
2019-02-19T07:19:08.871Z,1013.46
2019-02-19T07:20:08.868Z,1013.52
2019-02-19T07:21:08.857Z,1013.54
2019-02-19T07:22:09.087Z,1013.57
2019-02-19T07:23:08.864Z,1013.58
2019-02-19T07:24:08.880Z,1013.55
2019-02-19T07:25:08.853Z,1013.58
2019-02-19T07:26:08.871Z,1013.61
2019-02-19T07:27:08.862Z,1013.60
2019-02-19T07:28:08.896Z,1013.60
2019-02-19T07:29:08.841Z,1013.60
2019-02-19T07:30:09.044Z,1013.59
2019-02-19T07:31:08.822Z,1013.64
2019-02-19T07:32:08.831Z,1013.62
2019-02-19T07:33:09.018Z,1013.65
2019-02-19T07:34:08.823Z,1013.64
2019-02-19T07:35:08.826Z,1013.62
2019-02-19T07:36:08.821Z,1013.62
2019-02-19T07:37:08.802Z,1013.66
2019-02-19T07:38:09.131Z,1013.66
2019-02-19T07:39:08.797Z,1013.66
2019-02-19T07:41:09.108Z,1013.72
2019-02-19T07:42:08.779Z,1013.74
2019-02-19T07:43:08.782Z,1013.75
2019-02-19T07:44:08.778Z,1013.78
2019-02-19T07:45:08.769Z,1013.81
2019-02-19T07:46:08.795Z,1013.78
2019-02-19T07:47:08.760Z,1013.77
2019-02-19T07:48:08.759Z,1013.86
2019-02-19T07:49:08.752Z,1013.80
2019-02-19T07:50:08.755Z,1013.84
2019-02-19T07:51:08.766Z,1013.86
2019-02-19T07:52:08.744Z,1013.88
2019-02-19T07:53:08.943Z,1013.86
2019-02-19T07:54:08.744Z,1013.91
2019-02-19T07:55:08.948Z,1013.93
2019-02-19T07:56:08.949Z,1013.93
2019-02-19T07:57:08.750Z,1013.88
2019-02-19T07:58:08.722Z,1013.94
2019-02-19T07:59:08.733Z,1013.98
2019-02-19T08:00:08.715Z,1014.02
2019-02-19T08:01:08.717Z,1014.02
2019-02-19T08:02:08.705Z,1014.03
2019-02-19T08:03:08.724Z,1014.06
2019-02-19T08:04:08.706Z,1014.07
2019-02-19T08:05:08.927Z,1014.03
2019-02-19T08:06:09.019Z,1014.06
2019-02-19T08:07:08.690Z,1014.08
2019-02-19T08:08:08.907Z,1014.12
2019-02-19T08:09:08.689Z,1014.10
2019-02-19T08:10:08.695Z,1014.12
2019-02-19T08:11:08.874Z,1014.12
2019-02-19T08:12:08.896Z,1014.09
2019-02-19T08:13:08.673Z,1014.12
2019-02-19T08:14:08.670Z,1014.12
2019-02-19T08:15:08.653Z,1014.15
2019-02-19T08:16:08.849Z,1014.20
2019-02-19T08:17:08.649Z,1014.14
2019-02-19T08:18:08.859Z,1014.16
2019-02-19T08:19:08.663Z,1014.20
2019-02-19T08:20:15.325Z,1014.17
2019-02-19T08:21:08.662Z,1014.20
2019-02-19T08:22:08.829Z,1014.22
2019-02-19T08:23:08.653Z,1014.22
2019-02-19T08:24:08.635Z,1014.26
2019-02-19T08:25:08.614Z,1014.23
2019-02-19T08:26:08.632Z,1014.26
2019-02-19T08:27:08.602Z,1014.24
2019-02-19T08:28:08.607Z,1014.20
2019-02-19T08:29:13.805Z,1014.26
2019-02-19T08:30:08.655Z,1014.27
2019-02-19T08:31:08.602Z,1014.25
2019-02-19T08:32:08.606Z,1014.30
2019-02-19T08:33:08.617Z,1014.29
2019-02-19T08:34:08.593Z,1014.33
2019-02-19T08:35:08.578Z,1014.35
2019-02-19T08:36:08.572Z,1014.35
2019-02-19T08:37:08.772Z,1014.32
2019-02-19T08:38:08.583Z,1014.34
2019-02-19T08:39:08.562Z,1014.37
2019-02-19T08:40:08.758Z,1014.38
2019-02-19T08:41:08.579Z,1014.39
2019-02-19T08:42:08.568Z,1014.42
2019-02-19T08:43:08.756Z,1014.42
2019-02-19T08:44:08.591Z,1014.41
2019-02-19T08:45:08.573Z,1014.36
2019-02-19T08:46:08.534Z,1014.39
2019-02-19T08:47:08.544Z,1014.40
2019-02-19T08:49:08.534Z,1014.39
2019-02-19T08:50:08.731Z,1014.40
2019-02-19T08:51:08.527Z,1014.42
2019-02-19T08:52:08.515Z,1014.40
2019-02-19T08:53:08.717Z,1014.40
2019-02-19T08:54:08.709Z,1014.39
2019-02-19T08:55:08.511Z,1014.40
2019-02-19T08:56:08.501Z,1014.44
2019-02-19T08:57:08.492Z,1014.40
2019-02-19T08:58:08.705Z,1014.41
2019-02-19T08:59:08.511Z,1014.42
2019-02-19T09:00:08.487Z,1014.43
2019-02-19T09:01:08.885Z,1014.44
2019-02-19T09:02:08.676Z,1014.47
2019-02-19T09:03:08.483Z,1014.48
2019-02-19T09:04:08.478Z,1014.44
2019-02-19T09:05:08.474Z,1014.45
2019-02-19T09:06:08.478Z,1014.49
2019-02-19T09:07:08.478Z,1014.49
2019-02-19T09:08:08.460Z,1014.50
2019-02-19T09:09:08.653Z,1014.49
2019-02-19T09:10:08.449Z,1014.56
2019-02-19T09:11:08.444Z,1014.48
2019-02-19T09:12:08.660Z,1014.52
2019-02-19T09:13:08.638Z,1014.55
2019-02-19T09:14:08.768Z,1014.63
2019-02-19T09:15:08.631Z,1014.57
2019-02-19T09:16:08.419Z,1014.54
2019-02-19T09:18:08.422Z,1014.54
2019-02-19T09:19:08.412Z,1014.57
2019-02-19T09:20:08.428Z,1014.59
2019-02-19T09:21:08.399Z,1014.59
2019-02-19T09:22:08.427Z,1014.59
2019-02-19T09:23:08.410Z,1014.59
2019-02-19T09:24:09.752Z,1014.57
2019-02-19T09:25:08.686Z,1014.57
2019-02-19T09:26:08.587Z,1014.53
2019-02-19T09:27:08.395Z,1014.49
2019-02-19T09:28:08.593Z,1014.54
2019-02-19T09:29:08.390Z,1014.50
2019-02-19T09:30:08.380Z,1014.48
2019-02-19T09:31:08.376Z,1014.48
2019-02-19T09:32:08.377Z,1014.48
2019-02-19T09:33:08.580Z,1014.47
2019-02-19T09:34:08.354Z,1014.43
2019-02-19T09:35:08.572Z,1014.44
2019-02-19T09:36:08.347Z,1014.50
2019-02-19T09:37:08.382Z,1014.51
2019-02-19T09:38:08.379Z,1014.53
2019-02-19T09:39:08.336Z,1014.51
2019-02-19T09:40:08.367Z,1014.54
2019-02-19T09:41:08.591Z,1014.50
2019-02-19T09:42:08.322Z,1014.50
2019-02-19T09:43:08.537Z,1014.48
2019-02-19T09:44:08.525Z,1014.50
2019-02-19T09:45:08.346Z,1014.48
2019-02-19T09:46:08.317Z,1014.46
2019-02-19T09:47:08.342Z,1014.49
2019-02-19T09:48:08.525Z,1014.50
2019-02-19T09:49:08.314Z,1014.51
2019-02-19T09:50:08.512Z,1014.51
2019-02-19T09:51:08.291Z,1014.54
2019-02-19T09:52:08.510Z,1014.54
2019-02-19T09:53:08.286Z,1014.50
2019-02-19T09:54:08.287Z,1014.50
2019-02-19T09:55:08.506Z,1014.50
2019-02-19T09:56:08.287Z,1014.48
2019-02-19T09:57:08.308Z,1014.50
2019-02-19T09:58:08.476Z,1014.48
2019-02-19T10:00:08.277Z,1014.51
2019-02-19T10:01:08.287Z,1014.53
2019-02-19T10:02:08.457Z,1014.51
2019-02-19T10:03:08.266Z,1014.51
2019-02-19T10:04:08.257Z,1014.48
2019-02-19T10:05:08.452Z,1014.50
2019-02-19T10:06:08.457Z,1014.50
2019-02-19T10:07:08.437Z,1014.51
2019-02-19T10:08:08.236Z,1014.53
2019-02-19T10:09:08.449Z,1014.55
2019-02-19T10:10:08.267Z,1014.59
2019-02-19T10:11:08.232Z,1014.60
2019-02-19T10:12:08.232Z,1014.61
2019-02-19T10:13:08.429Z,1014.59
2019-02-19T10:14:08.217Z,1014.55
2019-02-19T10:15:08.219Z,1014.57
2019-02-19T10:16:08.207Z,1014.57
2019-02-19T10:17:08.203Z,1014.61
2019-02-19T10:18:10.543Z,1014.61
2019-02-19T10:19:08.196Z,1014.57
2019-02-19T10:20:08.189Z,1014.57
2019-02-19T10:21:08.192Z,1014.55
2019-02-19T10:22:08.401Z,1014.54
2019-02-19T10:23:08.184Z,1014.53
2019-02-19T10:24:08.190Z,1014.54
2019-02-19T10:25:08.375Z,1014.58
2019-02-19T10:26:08.193Z,1014.63
2019-02-19T10:27:08.169Z,1014.60
2019-02-19T10:28:08.167Z,1014.62
2019-02-19T10:29:08.168Z,1014.63
2019-02-19T10:30:08.170Z,1014.62
2019-02-19T10:31:08.161Z,1014.63
2019-02-19T10:32:08.354Z,1014.56
2019-02-19T10:33:08.149Z,1014.54
2019-02-19T10:34:08.145Z,1014.57
2019-02-19T10:35:08.146Z,1014.59
2019-02-19T10:36:08.342Z,1014.57
2019-02-19T10:37:08.146Z,1014.52
2019-02-19T10:38:08.147Z,1014.55
2019-02-19T10:39:08.359Z,1014.54
2019-02-19T10:40:08.326Z,1014.56
2019-02-19T10:41:08.130Z,1014.52
2019-02-19T10:42:08.123Z,1014.53
2019-02-19T10:43:08.116Z,1014.56
2019-02-19T10:44:08.136Z,1014.55
2019-02-19T10:45:08.102Z,1014.59
2019-02-19T10:46:08.104Z,1014.62
2019-02-19T10:47:08.115Z,1014.63
2019-02-19T10:48:08.098Z,1014.60
2019-02-19T10:49:08.097Z,1014.61
2019-02-19T10:50:08.112Z,1014.65
2019-02-19T10:51:08.102Z,1014.65
2019-02-19T10:52:08.295Z,1014.66
2019-02-19T10:53:08.108Z,1014.66
2019-02-19T10:54:08.087Z,1014.62
2019-02-19T10:55:08.082Z,1014.65
2019-02-19T10:56:08.085Z,1014.58
2019-02-19T10:57:08.071Z,1014.62
2019-02-19T10:58:08.258Z,1014.60
2019-02-19T10:59:08.066Z,1014.51
2019-02-19T11:00:08.086Z,1014.55
2019-02-19T11:01:08.050Z,1014.62
2019-02-19T11:02:08.264Z,1014.61
2019-02-19T11:03:08.045Z,1014.64
2019-02-19T11:04:08.044Z,1014.65
2019-02-19T11:05:08.064Z,1014.56
2019-02-19T11:06:08.073Z,1014.58
2019-02-19T11:07:08.034Z,1014.59
2019-02-19T11:08:08.025Z,1014.61
2019-02-19T11:09:08.052Z,1014.56
2019-02-19T11:10:08.024Z,1014.58
2019-02-19T11:11:08.024Z,1014.59
2019-02-19T11:12:08.030Z,1014.58
2019-02-19T11:13:08.010Z,1014.63
2019-02-19T11:14:08.014Z,1014.63
2019-02-19T11:15:08.015Z,1014.62
2019-02-19T11:16:08.205Z,1014.62
2019-02-19T11:17:08.000Z,1014.62
2019-02-19T11:18:08.009Z,1014.65
2019-02-19T11:19:08.316Z,1014.65
2019-02-19T11:20:08.004Z,1014.66
2019-02-19T11:21:08.208Z,1014.70
2019-02-19T11:22:08.013Z,1014.69
2019-02-19T11:23:08.008Z,1014.64
2019-02-19T11:24:07.978Z,1014.64
2019-02-19T11:25:07.982Z,1014.64
2019-02-19T11:26:08.177Z,1014.64
2019-02-19T11:27:07.964Z,1014.57
2019-02-19T11:28:07.992Z,1014.59
2019-02-19T11:29:08.161Z,1014.62
2019-02-19T11:30:07.967Z,1014.57
2019-02-19T11:31:07.963Z,1014.59
2019-02-19T11:32:07.950Z,1014.59
2019-02-19T11:33:08.178Z,1014.64
2019-02-19T11:34:07.975Z,1014.64
2019-02-19T11:35:07.959Z,1014.61
2019-02-19T11:36:07.949Z,1014.61
2019-02-19T11:37:07.940Z,1014.57
2019-02-19T11:38:07.944Z,1014.59
2019-02-19T11:39:07.946Z,1014.56
2019-02-19T11:40:07.942Z,1014.54
2019-02-19T11:41:07.969Z,1014.60
2019-02-19T11:42:07.950Z,1014.61
2019-02-19T11:43:07.921Z,1014.64
2019-02-19T11:44:08.133Z,1014.65
2019-02-19T11:45:08.118Z,1014.62
2019-02-19T11:46:07.910Z,1014.61
2019-02-19T11:47:07.910Z,1014.62
2019-02-19T11:48:08.105Z,1014.59
2019-02-19T11:49:07.902Z,1014.65
2019-02-19T11:50:07.894Z,1014.65
2019-02-19T11:51:08.095Z,1014.67
2019-02-19T11:52:07.903Z,1014.63
2019-02-19T11:53:07.889Z,1014.68
2019-02-19T11:54:07.902Z,1014.60
2019-02-19T11:55:07.899Z,1014.62
2019-02-19T11:56:08.283Z,1014.64
2019-02-19T11:57:07.887Z,1014.63
2019-02-19T11:58:08.090Z,1014.62
2019-02-19T11:59:08.752Z,1014.60
2019-02-19T12:00:07.868Z,1014.62
2019-02-19T12:01:08.085Z,1014.61
2019-02-19T12:02:07.863Z,1014.65
2019-02-19T12:03:08.080Z,1014.61
2019-02-19T12:04:08.074Z,1014.61
2019-02-19T12:05:07.866Z,1014.62
2019-02-19T12:06:07.861Z,1014.56
2019-02-19T12:07:07.844Z,1014.59
2019-02-19T12:08:08.061Z,1014.62
2019-02-19T12:09:07.849Z,1014.60
2019-02-19T12:10:07.838Z,1014.61
2019-02-19T12:11:07.860Z,1014.61
2019-02-19T12:12:07.842Z,1014.59
2019-02-19T12:13:08.030Z,1014.60
2019-02-19T12:14:07.825Z,1014.58
2019-02-19T12:15:07.837Z,1014.58
2019-02-19T12:16:07.819Z,1014.58
2019-02-19T12:17:07.824Z,1014.56
2019-02-19T12:18:07.815Z,1014.57